Observations

BIA Manual Entry


Date Temp Humidity Rainfall Dew Point Wind Direction Wind Speed Wind Pressure Condition Visibility
2025-03-04 00:01:14 27 92 0.00 25 260 5.7 1009 Cloudy 10 KM
2025-03-03 23:03:34 27 90 0.00 25 170 5.7 1009 Cloudy 10 KM
2025-03-03 20:01:31 28 84 0.0 25 050 9.5 1008 Night Thunderstorm 10KM
2025-03-03 19:02:13 28 83 0.00 25 040 13.3 1007 Thunderstorm 10KM
2025-03-03 18:01:19 28 84 0.00 25 360 7.6 1006 Thunderstorm 10KM
2025-03-03 17:00:10 29 81 26 360 13.3 1006 Thunderstorm 10KM
2025-03-03 15:59:35 30 78 0.0 26 340 15.2 1006 Partly Cloudy (Day) 20KM
2025-03-03 15:01:59 31 76 0.00 26 320 22.6 1006 Partly Cloudy (Day) 10KM
2025-03-03 14:01:50 32 64 0.0 25 340 19.0 1006 Cloudy 20KM
2025-03-03 13:00:37 31 68 0.00 25 360 9.5 1007 Cloudy 20 KM
2025-03-03 12:00:35 31 73 0.00 26 360 9.5 1008 Cloudy 20 KM
2025-03-03 11:01:25 30 76 0.00 25 010 13. 1008 Cloudy 20 KM
2025-03-03 10:10:55 30 76 25 020 3.8 1009 Partly Cloudy (Day) 20KM
2025-03-03 09:05:31 27 90 26 190 5.7 1010 Partly Cloudy (Day) 20KM
2025-03-03 08:04:38 26 92 0.0 25 150 3.8 1009 Partly Cloudy (Day) 10 KM
2025-03-03 07:05:24 26 95 0.01 MM 25 100 1.9 1009 Partly Cloudy (Day) 10 KM
2025-03-03 06:01:12 26 97 0.01 MM 26 120 5.7 1008 Rain 09 KM
2025-03-03 05:04:46 26 97 0.1 MM 26 100 5.7 1007 Night Shower 08 KM
2025-03-03 04:01:49 27 91 0.01 MM 26 010 7.6 1007 Night Shower 10 KM
2025-03-03 03:01:39 27 92 0.0 26 020 7.6 1007 Partly Cloudy (Night) 10 KM
2025-03-03 02:00:22 27 91 26 030 7.6 1007 Cloudy 10 KM
2025-03-03 00:59:37 27 91 26 020 9.5 1008 Cloudy 10 KM
2025-03-03 00:06:51 28 87 25 050 11.4 1008 Cloudy 10 KM
2025-03-02 23:00:59 28 87 25 020 13.3 1009 Partly Cloudy (Night) 10 KM
2025-03-02 22:00:32 28 88 26 020 9.5 1008 Partly Cloudy (Night) 10 KM